King George, Virginia
Current Conditions -  °F | °C
As of 11:55 AM on Thursday 23 Oct 2014 (Local Time) from KEZF Reporting Station
Clear Clear  
Wind Chill: 18°   Ceiling: Unl
Heat Index: 18°   Visibility: 10mi
Dew Point:   Wind: 18mph
Humidity: 52%   Direction: 300°WNW
Pressure: 29.91"   Gusts: 29mph
Location:  38.27°N, 77.18°W
Report Text: KEZF 231555Z AUTO 30016G25KT 260V320 10SM CLR 18/08 A2991 RMK AO2 T01750076
Loading
Personal Weather Stations






























Interactive Weather Map
Tropical Storm Tracking
New forecast layout! Learn more

10-Day Weather Forecast

Advertisements
Track Severe Weather on mobile